Terminal Aerodrome Forecast
Issued by NWS San Angelo, TX

Home | Current Version | Previous Version | Text Only | Print | Product List | Glossary On
Versions: 1 2 3 4 5 6 7 8 9 10 11 12 13 14 15
740
FTUS44 KSJT 272013 AAA
TAFSJT
TAF AMD
KSJT 272013Z 2720/2818 23007KT P6SM VCTS SCT070CB
     FM280100 VRB05KT P6SM SCT120=

USA.gov is the U.S. government's official web portal to all federal, state and local government web resources and services.